Time;durP1;ratioP1;P1;durP2;ratioP2;P2;SDS_P1;SDS_P2;PMS_P1;PMS_P2;Temp;Humidity;BMP_temperature;BMP_pressure;BME280_temperature;BME280_humidity;BME280_pressure;Samples;Min_cycle;Max_cycle;Signal;HPM_P1;HPM_P2
2021/05/02 00:00:06;;;;;;;4.50;3.25;;;;;11.20;101404.00;;;;5070095;28;20207;-76
2021/05/02 00:02:35;;;;;;;3.90;2.92;;;;;11.20;101403.00;;;;5075572;28;20677;-76
2021/05/02 00:05:02;;;;;;;4.40;3.22;;;;;11.20;101400.00;;;;5087063;28;20221;-76
2021/05/02 00:07:29;;;;;;;4.25;2.65;;;;;11.20;101397.00;;;;5084404;28;20221;-76
2021/05/02 00:09:57;;;;;;;3.28;2.60;;;;;11.20;101405.00;;;;5087062;28;20211;-76
2021/05/02 00:12:24;;;;;;;3.42;2.42;;;;;11.10;101412.00;;;;5071946;28;20222;-76
2021/05/02 00:14:51;;;;;;;3.17;2.70;;;;;11.10;101410.00;;;;5072332;28;20676;-76
2021/05/02 00:17:19;;;;;;;4.18;2.75;;;;;11.10;101404.00;;;;5090209;28;20186;-76
2021/05/02 00:19:46;;;;;;;3.85;2.75;;;;;11.10;101404.00;;;;5085842;28;20214;-76
2021/05/02 00:22:16;;;;;;;3.75;2.90;;;;;11.10;101404.00;;;;5073649;28;20201;-76
2021/05/02 00:24:44;;;;;;;3.88;2.63;;;;;11.10;101408.00;;;;5088749;28;20198;-76
2021/05/02 00:27:11;;;;;;;3.28;2.38;;;;;11.00;101398.00;;;;5077585;28;20204;-76
2021/05/02 00:29:40;;;;;;;4.18;2.80;;;;;11.00;101401.00;;;;5091030;28;20187;-76
2021/05/02 00:35:27;;;;;;;4.15;2.47;;;;;11.00;101407.00;;;;5063084;28;20577;-76
2021/05/02 00:37:55;;;;;;;4.28;2.75;;;;;10.90;101410.00;;;;5078821;28;20192;-76
2021/05/02 00:40:34;;;;;;;4.88;2.58;;;;;10.80;101413.00;;;;5072748;28;20203;-76
2021/05/02 00:43:07;;;;;;;3.33;2.67;;;;;10.90;101415.00;;;;5081740;28;20629;-76
2021/05/02 00:45:47;;;;;;;3.60;2.60;;;;;10.90;101420.00;;;;5079149;28;20591;-76
2021/05/02 00:48:20;;;;;;;3.25;2.72;;;;;10.80;101419.00;;;;5071295;28;20202;-76
2021/05/02 00:50:55;;;;;;;4.30;2.85;;;;;10.80;101420.00;;;;5071563;28;20260;-76
2021/05/02 00:53:45;;;;;;;4.20;2.90;;;;;10.70;101424.00;;;;5071852;28;20221;-76
2021/05/02 00:56:17;;;;;;;3.83;2.80;;;;;10.70;101418.00;;;;5070697;28;20187;-76
2021/05/02 00:58:54;;;;;;;4.00;2.50;;;;;10.70;101421.00;;;;5070562;28;20210;-76
2021/05/02 01:01:22;;;;;;;2.60;1.92;;;;;10.70;101422.00;;;;5070148;28;20676;-76
2021/05/02 01:03:51;;;;;;;3.28;2.30;;;;;10.70;101415.00;;;;5071471;28;20191;-76
2021/05/02 01:06:23;;;;;;;3.45;2.47;;;;;10.70;101419.00;;;;5069681;28;20198;-76
2021/05/02 01:08:52;;;;;;;3.63;2.30;;;;;10.70;101422.00;;;;5078800;28;20243;-76
2021/05/02 01:11:19;;;;;;;4.38;2.53;;;;;10.70;101422.00;;;;5089897;28;20888;-76
2021/05/02 01:13:53;;;;;;;3.08;2.28;;;;;10.60;101425.00;;;;5081249;28;20219;-76
2021/05/02 01:16:20;;;;;;;4.63;2.33;;;;;10.60;101424.00;;;;5078390;28;20198;-76
2021/05/02 01:18:48;;;;;;;3.75;2.17;;;;;10.60;101426.00;;;;5069571;28;20202;-76
2021/05/02 01:21:17;;;;;;;4.78;2.60;;;;;10.60;101428.00;;;;5069755;28;20852;-76
2021/05/02 01:23:46;;;;;;;2.60;2.05;;;;;10.60;101418.00;;;;5074103;28;20641;-76
2021/05/02 01:26:16;;;;;;;3.40;2.33;;;;;10.50;101423.00;;;;5075390;28;20195;-76
2021/05/02 01:28:43;;;;;;;3.28;2.20;;;;;10.60;101427.00;;;;5089312;28;20201;-76
2021/05/02 01:31:10;;;;;;;2.47;1.70;;;;;10.60;101427.00;;;;5081981;28;21292;-77
2021/05/02 01:33:37;;;;;;;4.03;2.15;;;;;10.50;101429.00;;;;5072187;28;20218;-77
2021/05/02 01:36:04;;;;;;;5.57;2.03;;;;;10.50;101428.00;;;;5082460;28;20199;-77
2021/05/02 01:38:33;;;;;;;3.30;2.20;;;;;10.50;101433.00;;;;5083539;28;20285;-77
2021/05/02 01:41:00;;;;;;;4.22;2.58;;;;;10.50;101424.00;;;;5069477;28;20199;-77
2021/05/02 01:43:27;;;;;;;4.85;1.85;;;;;10.50;101426.00;;;;5067929;28;20657;-77
2021/05/02 01:45:55;;;;;;;3.13;2.05;;;;;10.50;101421.00;;;;5070597;28;20676;-77
2021/05/02 01:48:23;;;;;;;3.00;2.00;;;;;10.40;101429.00;;;;5068976;28;20195;-77
2021/05/02 01:50:54;;;;;;;1.98;1.70;;;;;10.40;101429.00;;;;5069686;28;20226;-77
2021/05/02 01:53:21;;;;;;;1.95;1.52;;;;;10.40;101423.00;;;;5073065;28;20221;-77
2021/05/02 01:55:48;;;;;;;3.88;1.90;;;;;10.40;101423.00;;;;5086193;28;20206;-76
2021/05/02 01:58:16;;;;;;;2.72;1.92;;;;;10.40;101430.00;;;;5069961;28;20720;-77
2021/05/02 02:00:49;;;;;;;3.10;1.88;;;;;10.40;101425.00;;;;5073692;28;20198;-77
2021/05/02 02:03:17;;;;;;;3.25;2.08;;;;;10.30;101421.00;;;;5078382;28;20198;-77
2021/05/02 02:05:44;;;;;;;3.58;1.98;;;;;10.30;101423.00;;;;5070414;28;20210;-77
2021/05/02 02:08:11;;;;;;;3.10;2.45;;;;;10.30;101423.00;;;;5069565;28;20206;-77
2021/05/02 02:10:38;;;;;;;2.67;1.48;;;;;10.30;101427.00;;;;5068738;28;20229;-76
2021/05/02 02:13:07;;;;;;;2.10;1.73;;;;;10.30;101433.00;;;;5069017;28;20215;-77
2021/05/02 02:15:35;;;;;;;1.70;1.50;;;;;10.30;101437.00;;;;5072998;28;20648;-77
2021/05/02 02:18:02;;;;;;;2.53;1.52;;;;;10.30;101429.00;;;;5088615;28;20648;-76
2021/05/02 02:20:35;;;;;;;1.50;1.25;;;;;10.20;101433.00;;;;5086894;28;20198;-76
2021/05/02 02:23:07;;;;;;;3.97;1.60;;;;;10.20;101433.00;;;;5069052;28;20253;-76
2021/05/02 02:25:42;;;;;;;1.90;1.67;;;;;10.20;101441.00;;;;5076279;28;20217;-76
2021/05/02 02:28:13;;;;;;;1.55;0.95;;;;;10.20;101437.00;;;;5068660;28;20198;-76
2021/05/02 02:30:44;;;;;;;4.28;1.90;;;;;10.20;101440.00;;;;5068766;28;20324;-76
2021/05/02 02:33:12;;;;;;;2.50;1.73;;;;;10.20;101444.00;;;;5070197;28;20297;-76
2021/05/02 02:35:49;;;;;;;2.60;1.42;;;;;10.10;101438.00;;;;5086369;28;20190;-76
2021/05/02 02:38:19;;;;;;;3.40;1.80;;;;;10.10;101441.00;;;;5068095;28;20225;-76
2021/05/02 02:40:48;;;;;;;2.35;1.55;;;;;10.10;101436.00;;;;5067926;28;20210;-76
2021/05/02 02:43:21;;;;;;;3.20;1.52;;;;;10.10;101446.00;;;;5067863;28;20206;-76
2021/05/02 02:45:53;;;;;;;3.20;1.55;;;;;10.10;101441.00;;;;5067612;28;20588;-76
2021/05/02 02:48:23;;;;;;;4.60;1.25;;;;;10.00;101442.00;;;;5068515;28;20238;-76
2021/05/02 02:50:52;;;;;;;2.47;1.42;;;;;10.00;101446.00;;;;5067819;28;20206;-76
2021/05/02 02:53:21;;;;;;;4.45;1.60;;;;;10.00;101447.00;;;;5067585;28;20253;-76
2021/05/02 02:55:58;;;;;;;2.20;1.55;;;;;10.00;101450.00;;;;5068240;28;21248;-76
2021/05/02 02:58:29;;;;;;;4.72;1.23;;;;;10.00;101462.00;;;;5069844;28;20230;-76
2021/05/02 03:00:57;;;;;;;2.97;1.40;;;;;10.00;101455.00;;;;5082053;28;20263;-76
2021/05/02 03:03:26;;;;;;;3.45;1.20;;;;;9.90;101450.00;;;;5070675;28;20661;-76
2021/05/02 03:05:54;;;;;;;2.63;1.52;;;;;9.90;101452.00;;;;5085102;28;20668;-76
2021/05/02 03:08:24;;;;;;;3.90;1.85;;;;;9.90;101454.00;;;;5087831;28;20205;-76
2021/05/02 03:10:51;;;;;;;1.50;1.20;;;;;9.90;101456.00;;;;5069006;28;20583;-76
2021/05/02 03:13:19;;;;;;;1.98;1.23;;;;;9.90;101462.00;;;;5084086;28;20230;-76
2021/05/02 03:15:47;;;;;;;2.20;1.42;;;;;9.80;101450.00;;;;5075752;28;20198;-76
2021/05/02 03:18:17;;;;;;;2.53;1.02;;;;;9.80;101456.00;;;;5085225;28;20205;-76
2021/05/02 03:20:50;;;;;;;3.28;1.35;;;;;9.80;101459.00;;;;5072214;28;20234;-76
2021/05/02 03:23:26;;;;;;;2.75;1.48;;;;;9.80;101459.00;;;;5068178;28;20207;-76
2021/05/02 03:25:56;;;;;;;3.35;1.70;;;;;9.80;101462.00;;;;5078218;28;20558;-76
2021/05/02 03:28:32;;;;;;;2.63;1.35;;;;;9.70;101464.00;;;;5068013;28;20194;-76
2021/05/02 03:31:01;;;;;;;1.73;1.23;;;;;9.70;101465.00;;;;5079908;28;20209;-76
2021/05/02 03:33:34;;;;;;;1.95;1.23;;;;;9.70;101472.00;;;;5068394;28;20222;-76
2021/05/02 03:36:08;;;;;;;1.45;1.13;;;;;9.70;101463.00;;;;5068038;28;20198;-76
2021/05/02 03:38:42;;;;;;;2.13;1.20;;;;;9.60;101468.00;;;;5069150;28;20205;-75
2021/05/02 03:41:09;;;;;;;1.50;1.02;;;;;9.70;101473.00;;;;5088555;28;20230;-76
2021/05/02 03:43:37;;;;;;;1.77;1.02;;;;;9.60;101477.00;;;;5087913;28;20746;-76
2021/05/02 03:46:04;;;;;;;2.03;1.10;;;;;9.60;101476.00;;;;5067706;28;20199;-76
2021/05/02 03:48:32;;;;;;;2.30;1.63;;;;;9.60;101483.00;;;;5067382;28;20199;-76
2021/05/02 03:50:59;;;;;;;1.98;1.13;;;;;9.60;101483.00;;;;5071703;28;20203;-76
2021/05/02 03:53:26;;;;;;;3.28;1.13;;;;;9.60;101486.00;;;;5067983;28;20250;-76
2021/05/02 03:55:53;;;;;;;2.30;1.40;;;;;9.60;101483.00;;;;5075936;28;20218;-76
2021/05/02 03:58:19;;;;;;;3.38;1.42;;;;;9.60;101488.00;;;;5067944;28;20195;-76
2021/05/02 04:00:46;;;;;;;3.50;1.30;;;;;9.60;101492.00;;;;5068758;28;20210;-76
2021/05/02 04:03:14;;;;;;;2.60;1.20;;;;;9.60;101494.00;;;;5068060;28;20206;-76
2021/05/02 04:05:42;;;;;;;2.03;1.52;;;;;9.50;101499.00;;;;5068463;28;20249;-76
2021/05/02 04:08:10;;;;;;;3.03;1.80;;;;;9.50;101507.00;;;;5078962;28;20731;-76
2021/05/02 04:10:36;;;;;;;3.15;1.80;;;;;9.50;101508.00;;;;5068273;28;20215;-77
2021/05/02 04:13:03;;;;;;;1.80;1.40;;;;;9.50;101495.00;;;;5070231;28;20260;-77
2021/05/02 04:15:30;;;;;;;3.67;1.70;;;;;9.50;101504.00;;;;5072916;28;20199;-77
2021/05/02 04:17:57;;;;;;;4.18;1.40;;;;;9.50;101502.00;;;;5086091;28;20186;-76
2021/05/02 04:20:24;;;;;;;3.00;1.23;;;;;9.40;101511.00;;;;5076225;28;20237;-77
2021/05/02 04:22:51;;;;;;;2.20;1.35;;;;;9.40;101508.00;;;;5078617;28;20721;-77
2021/05/02 04:25:18;;;;;;;2.47;1.27;;;;;9.40;101513.00;;;;5073381;28;20210;-77
2021/05/02 04:27:45;;;;;;;4.32;1.40;;;;;9.40;101516.00;;;;5071238;28;20202;-77
2021/05/02 04:30:12;;;;;;;2.97;1.75;;;;;9.40;101518.00;;;;5077154;28;20186;-77
2021/05/02 04:32:39;;;;;;;2.00;1.10;;;;;9.40;101521.00;;;;5084968;28;20215;-76
2021/05/02 04:35:07;;;;;;;1.73;1.20;;;;;9.40;101526.00;;;;5071053;28;20202;-77
2021/05/02 04:37:33;;;;;;;3.33;1.77;;;;;9.40;101534.00;;;;5071098;28;20207;-77
2021/05/02 04:40:01;;;;;;;3.38;1.35;;;;;9.40;101531.00;;;;5080139;28;20199;-76
2021/05/02 04:42:28;;;;;;;3.60;1.50;;;;;9.40;101528.00;;;;5071191;28;20236;-77
2021/05/02 04:44:54;;;;;;;1.75;1.30;;;;;9.40;101533.00;;;;5070655;28;20266;-77
2021/05/02 04:47:22;;;;;;;1.98;1.40;;;;;9.40;101531.00;;;;5071364;28;20191;-77
2021/05/02 04:49:49;;;;;;;2.45;1.50;;;;;9.40;101537.00;;;;5071274;28;20207;-77
2021/05/02 04:52:16;;;;;;;2.13;1.50;;;;;9.40;101536.00;;;;5070397;28;20226;-77
2021/05/02 04:54:42;;;;;;;2.40;1.35;;;;;9.40;101536.00;;;;5076098;28;20671;-77
2021/05/02 04:57:10;;;;;;;2.70;1.70;;;;;9.50;101547.00;;;;5082370;28;20668;-77
2021/05/02 04:59:37;;;;;;;2.05;1.50;;;;;9.50;101546.00;;;;5071099;28;20203;-77
2021/05/02 05:02:04;;;;;;;2.38;1.63;;;;;9.60;101545.00;;;;5081097;28;20198;-76
2021/05/02 05:04:31;;;;;;;5.75;1.25;;;;;9.70;101548.00;;;;5071172;28;20195;-77
2021/05/02 05:06:58;;;;;;;2.17;1.58;;;;;9.80;101553.00;;;;5070317;28;20733;-77
2021/05/02 05:09:25;;;;;;;4.38;1.90;;;;;9.90;101553.00;;;;5080630;28;20190;-77
2021/05/02 05:11:52;;;;;;;3.95;2.13;;;;;9.90;101552.00;;;;5091061;28;20202;-77
2021/05/02 05:14:20;;;;;;;6.07;2.10;;;;;10.00;101567.00;;;;5081897;28;20196;-77
2021/05/02 05:16:46;;;;;;;2.53;1.65;;;;;10.10;101564.00;;;;5078640;28;20202;-77
2021/05/02 05:19:13;;;;;;;2.58;1.88;;;;;10.20;101567.00;;;;5070298;28;20191;-77
2021/05/02 05:21:40;;;;;;;2.13;1.92;;;;;10.20;101571.00;;;;5087168;28;20210;-77
2021/05/02 05:24:07;;;;;;;3.88;1.98;;;;;10.30;101569.00;;;;5080876;28;20625;-77
2021/05/02 05:26:34;;;;;;;3.03;1.98;;;;;10.30;101577.00;;;;5070103;28;20662;-77
2021/05/02 05:29:01;;;;;;;2.85;1.83;;;;;10.40;101582.00;;;;5070242;28;20195;-77
2021/05/02 05:31:28;;;;;;;4.88;1.67;;;;;10.50;101585.00;;;;5075055;28;20198;-77
2021/05/02 05:33:55;;;;;;;2.85;1.90;;;;;10.60;101583.00;;;;5074182;28;20233;-77
2021/05/02 05:36:22;;;;;;;4.03;2.15;;;;;10.60;101587.00;;;;5069050;28;20201;-77
2021/05/02 05:38:48;;;;;;;3.53;2.35;;;;;10.70;101588.00;;;;5073144;28;20247;-77
2021/05/02 05:41:15;;;;;;;1.95;1.75;;;;;10.70;101587.00;;;;5069833;28;20191;-77
2021/05/02 05:43:42;;;;;;;2.03;1.73;;;;;10.80;101593.00;;;;5069796;28;20241;-77
2021/05/02 05:46:13;;;;;;;3.50;2.13;;;;;10.90;101590.00;;;;5074859;28;20260;-77
2021/05/02 05:48:41;;;;;;;2.78;2.05;;;;;11.00;101592.00;;;;5086191;28;20679;-77
2021/05/02 05:51:08;;;;;;;3.30;2.33;;;;;11.00;101592.00;;;;5089112;28;20194;-77
2021/05/02 05:53:35;;;;;;;4.22;2.33;;;;;11.10;101601.00;;;;5084860;28;20223;-77
2021/05/02 05:56:02;;;;;;;4.18;2.33;;;;;11.20;101605.00;;;;5069742;28;20199;-77
2021/05/02 05:58:31;;;;;;;3.35;1.67;;;;;11.30;101612.00;;;;5077459;28;20202;-76
2021/05/02 06:00:58;;;;;;;2.20;1.92;;;;;11.40;101601.00;;;;5081781;28;20214;-77
2021/05/02 06:03:24;;;;;;;4.10;2.33;;;;;11.50;101602.00;;;;5079734;28;20691;-77
2021/05/02 06:05:52;;;;;;;3.63;2.30;;;;;11.50;101609.00;;;;5071840;28;20207;-77
2021/05/02 06:08:19;;;;;;;2.55;1.73;;;;;11.70;101608.00;;;;5070894;28;20664;-77
2021/05/02 06:10:45;;;;;;;4.30;2.20;;;;;11.70;101600.00;;;;5075083;28;20222;-76
2021/05/02 06:13:16;;;;;;;2.17;1.67;;;;;11.80;101603.00;;;;5069656;28;20226;-77
2021/05/02 06:15:43;;;;;;;2.80;1.55;;;;;11.90;101607.00;;;;5074018;28;20571;-77
2021/05/02 06:18:10;;;;;;;3.00;1.25;;;;;12.00;101602.00;;;;5075795;28;20195;-75
2021/05/02 06:20:36;;;;;;;1.50;1.20;;;;;12.10;101612.00;;;;5081807;28;20206;-76
2021/05/02 06:23:04;;;;;;;3.83;1.50;;;;;12.20;101600.00;;;;5072835;28;20214;-76
2021/05/02 06:25:31;;;;;;;1.48;1.08;;;;;12.30;101604.00;;;;5075421;28;20190;-75
2021/05/02 06:28:00;;;;;;;3.30;1.20;;;;;12.40;101612.00;;;;5087142;28;20343;-75
2021/05/02 06:30:27;;;;;;;2.28;1.00;;;;;12.50;101620.00;;;;5070412;28;20206;-75
2021/05/02 06:32:54;;;;;;;3.15;1.30;;;;;12.50;101618.00;;;;5079794;28;20722;-76
2021/05/02 06:35:21;;;;;;;1.50;0.82;;;;;12.60;101621.00;;;;5088617;28;20699;-75
2021/05/02 06:37:48;;;;;;;1.42;0.65;;;;;12.70;101609.00;;;;5088769;28;20714;-75
2021/05/02 06:40:15;;;;;;;1.33;1.05;;;;;12.80;101621.00;;;;5075703;28;21011;-76
2021/05/02 06:42:42;;;;;;;3.13;0.85;;;;;12.90;101613.00;;;;5081440;28;20639;-76
2021/05/02 06:45:10;;;;;;;1.65;0.95;;;;;13.00;101629.00;;;;5074347;28;20218;-76
2021/05/02 06:47:37;;;;;;;0.80;0.73;;;;;13.10;101623.00;;;;5081232;28;20207;-75
2021/05/02 06:50:04;;;;;;;7.65;1.10;;;;;13.20;101628.00;;;;5087376;28;20203;-76
2021/05/02 06:52:31;;;;;;;2.80;0.73;;;;;13.30;101622.00;;;;5078121;28;20272;-76
2021/05/02 06:54:57;;;;;;;0.82;0.63;;;;;13.40;101629.00;;;;5073188;28;20638;-78
2021/05/02 06:57:25;;;;;;;1.83;0.80;;;;;13.50;101631.00;;;;5076950;28;20223;-76
2021/05/02 06:59:52;;;;;;;1.55;0.70;;;;;13.60;101630.00;;;;5084529;28;20202;-75
2021/05/02 07:02:19;;;;;;;2.40;0.75;;;;;13.60;101640.00;;;;5085024;28;20256;-76
2021/05/02 07:04:45;;;;;;;4.15;1.08;;;;;13.70;101636.00;;;;5078359;28;20590;-78
2021/05/02 07:07:13;;;;;;;2.30;0.82;;;;;13.70;101639.00;;;;5080611;28;20213;-77
2021/05/02 07:09:40;;;;;;;2.45;1.20;;;;;13.80;101638.00;;;;5068016;28;20766;-77
2021/05/02 07:12:07;;;;;;;0.88;0.57;;;;;13.90;101640.00;;;;5085282;28;20194;-76
2021/05/02 07:14:34;;;;;;;1.63;0.80;;;;;14.00;101638.00;;;;5079056;28;20637;-76
2021/05/02 07:17:01;;;;;;;1.42;0.80;;;;;14.00;101644.00;;;;5082750;28;20668;-76
2021/05/02 07:19:28;;;;;;;1.80;0.70;;;;;14.10;101643.00;;;;5087588;28;20198;-76
2021/05/02 07:22:02;;;;;;;2.15;1.10;;;;;14.10;101654.00;;;;5078202;28;20289;-76
2021/05/02 07:24:29;;;;;;;0.80;0.60;;;;;14.20;101651.00;;;;5080933;28;20204;-76
2021/05/02 07:26:56;;;;;;;1.48;0.80;;;;;14.20;101653.00;;;;5087784;28;20209;-76
2021/05/02 07:29:23;;;;;;;0.95;0.50;;;;;14.30;101655.00;;;;5068975;28;20191;-76
2021/05/02 07:31:51;;;;;;;2.97;0.88;;;;;14.30;101656.00;;;;5080812;28;20206;-77
2021/05/02 07:34:19;;;;;;;1.20;0.70;;;;;14.40;101657.00;;;;5086471;28;20226;-77
2021/05/02 07:36:46;;;;;;;2.58;0.88;;;;;14.60;101658.00;;;;5083339;28;20254;-77
2021/05/02 07:39:13;;;;;;;2.30;0.60;;;;;14.70;101661.00;;;;5076071;28;20210;-74
2021/05/02 07:41:40;;;;;;;0.90;0.70;;;;;14.80;101656.00;;;;5084829;28;20191;-75
2021/05/02 07:44:07;;;;;;;0.77;0.70;;;;;14.90;101664.00;;;;5080950;28;20275;-76
2021/05/02 07:46:34;;;;;;;1.88;0.90;;;;;15.00;101665.00;;;;5082510;28;20202;-75
2021/05/02 07:49:02;;;;;;;1.10;0.60;;;;;15.10;101661.00;;;;5071602;28;20194;-75
2021/05/02 07:51:28;;;;;;;1.15;0.60;;;;;15.10;101667.00;;;;5081467;28;20213;-78
2021/05/02 07:53:55;;;;;;;1.17;0.52;;;;;15.20;101664.00;;;;5074431;28;20230;-75
2021/05/02 07:56:22;;;;;;;1.88;0.93;;;;;15.20;101672.00;;;;5087016;28;20198;-75
2021/05/02 07:58:49;;;;;;;4.05;0.60;;;;;15.30;101672.00;;;;5074500;28;20615;-75
2021/05/02 08:01:16;;;;;;;0.50;0.40;;;;;15.30;101674.00;;;;5089565;28;20685;-75
2021/05/02 08:03:42;;;;;;;0.50;0.40;;;;;15.40;101671.00;;;;5081528;28;20252;-76
2021/05/02 08:06:10;;;;;;;1.10;0.43;;;;;15.40;101673.00;;;;5088962;28;20198;-75
2021/05/02 08:08:37;;;;;;;1.48;1.05;;;;;15.40;101674.00;;;;5089947;28;20260;-76
2021/05/02 08:11:03;;;;;;;1.42;0.77;;;;;15.30;101676.00;;;;5078064;28;20228;-75
2021/05/02 08:13:31;;;;;;;1.05;0.40;;;;;15.30;101675.00;;;;5088085;28;20226;-76
2021/05/02 08:15:57;;;;;;;1.00;0.55;;;;;15.30;101680.00;;;;5084662;28;20199;-75
2021/05/02 08:18:24;;;;;;;3.17;0.50;;;;;15.30;101677.00;;;;5078555;28;20198;-75
2021/05/02 08:20:51;;;;;;;0.85;0.63;;;;;15.40;101671.00;;;;5080356;28;20222;-77
2021/05/02 08:23:19;;;;;;;1.65;0.90;;;;;15.40;101679.00;;;;5074011;28;20603;-76
2021/05/02 08:25:46;;;;;;;2.65;0.82;;;;;15.50;101676.00;;;;5077236;28;20190;-76
2021/05/02 08:28:12;;;;;;;1.23;0.82;;;;;15.60;101682.00;;;;5079230;28;20285;-76
2021/05/02 08:30:39;;;;;;;2.45;0.82;;;;;15.70;101675.00;;;;5083077;28;20219;-75
2021/05/02 08:33:06;;;;;;;2.00;0.82;;;;;15.70;101677.00;;;;5079443;28;20230;-76
2021/05/02 08:35:33;;;;;;;3.45;0.60;;;;;15.70;101680.00;;;;5073995;28;20648;-78
2021/05/02 08:38:00;;;;;;;1.75;0.80;;;;;15.80;101681.00;;;;5083843;28;20287;-76
2021/05/02 08:40:28;;;;;;;1.45;0.75;;;;;15.80;101681.00;;;;5083889;28;20584;-77
2021/05/02 08:42:55;;;;;;;1.40;0.57;;;;;15.90;101680.00;;;;5077843;28;20202;-76
2021/05/02 08:45:24;;;;;;;0.60;0.50;;;;;16.00;101683.00;;;;5086167;28;20598;-76
2021/05/02 08:47:51;;;;;;;0.75;0.57;;;;;16.00;101679.00;;;;5088244;28;20194;-76
2021/05/02 08:50:19;;;;;;;1.30;0.50;;;;;16.10;101674.00;;;;5081125;28;20676;-77
2021/05/02 08:52:46;;;;;;;1.67;0.63;;;;;16.20;101682.00;;;;5079354;28;20218;-76
2021/05/02 08:55:13;;;;;;;1.73;0.45;;;;;16.30;101687.00;;;;5086720;28;20201;-77
2021/05/02 08:57:40;;;;;;;2.22;0.70;;;;;16.30;101683.00;;;;5087086;28;20199;-77
2021/05/02 09:00:09;;;;;;;1.50;0.70;;;;;16.50;101679.00;;;;5070592;28;20207;-77
2021/05/02 09:02:36;;;;;;;8.40;0.60;;;;;16.70;101675.00;;;;5080433;28;20572;-78
2021/05/02 09:05:06;;;;;;;0.65;0.50;;;;;16.80;101680.00;;;;5090309;28;20922;-76
2021/05/02 09:07:42;;;;;;;1.20;0.70;;;;;16.90;101684.00;;;;5088611;28;20299;-76
2021/05/02 09:10:11;;;;;;;1.08;0.80;;;;;16.90;101686.00;;;;5087249;28;20214;-76
2021/05/02 09:12:41;;;;;;;1.63;0.50;;;;;16.90;101685.00;;;;5078676;28;20222;-77
2021/05/02 09:15:10;;;;;;;3.55;0.80;;;;;16.90;101696.00;;;;5077367;28;20186;-76
2021/05/02 09:17:51;;;;;;;0.77;0.45;;;;;16.70;101707.00;;;;5090297;28;20605;-77
2021/05/02 09:20:43;;;;;;;1.08;0.60;;;;;16.60;101711.00;;;;5076283;28;20224;-77
2021/05/02 09:23:10;;;;;;;0.77;0.47;;;;;16.60;101714.00;;;;5074384;28;20195;-76
2021/05/02 09:25:51;;;;;;;0.50;0.35;;;;;16.40;101719.00;;;;5081667;28;20248;-75
2021/05/02 09:28:39;;;;;;;1.15;0.60;;;;;16.40;101719.00;;;;5076647;28;20198;-77
2021/05/02 09:31:07;;;;;;;1.02;0.28;;;;;16.30;101725.00;;;;5090221;28;20209;-76
2021/05/02 09:33:35;;;;;;;0.68;0.20;;;;;16.30;101726.00;;;;5088801;28;20279;-78
2021/05/02 09:36:02;;;;;;;0.50;0.50;;;;;16.20;101724.00;;;;5088956;28;20202;-77
2021/05/02 09:38:29;;;;;;;0.80;0.70;;;;;16.20;101722.00;;;;5087959;28;20239;-78
2021/05/02 09:40:57;;;;;;;1.15;0.50;;;;;16.20;101719.00;;;;5077667;28;20236;-78
2021/05/02 09:43:34;;;;;;;1.50;0.50;;;;;16.10;101726.00;;;;5089967;28;20214;-78
2021/05/02 09:46:23;;;;;;;0.90;0.45;;;;;16.10;101712.00;;;;5080292;28;20202;-76
2021/05/02 09:48:52;;;;;;;1.25;0.47;;;;;16.10;101720.00;;;;5083023;28;20214;-77
2021/05/02 09:51:20;;;;;;;1.77;0.52;;;;;16.20;101707.00;;;;5080013;28;20244;-77
2021/05/02 09:54:05;;;;;;;1.58;0.70;;;;;16.30;101709.00;;;;5076241;28;20236;-77
2021/05/02 09:56:34;;;;;;;0.47;0.38;;;;;16.50;101725.00;;;;5090231;28;20202;-76
2021/05/02 09:59:02;;;;;;;1.17;0.60;;;;;16.60;101719.00;;;;5081063;28;20198;-76
2021/05/02 10:01:29;;;;;;;2.15;0.60;;;;;16.70;101725.00;;;;5080685;28;20256;-76
2021/05/02 10:03:57;;;;;;;1.27;0.73;;;;;16.70;101725.00;;;;5076903;28;20573;-76
2021/05/02 10:06:32;;;;;;;1.08;0.50;;;;;16.60;101730.00;;;;5075743;28;20195;-77
2021/05/02 10:09:01;;;;;;;1.35;0.77;;;;;16.70;101719.00;;;;5077022;28;20194;-77
2021/05/02 10:11:28;;;;;;;0.63;0.47;;;;;16.70;101719.00;;;;5077718;28;20211;-77
2021/05/02 10:13:56;;;;;;;0.90;0.40;;;;;16.70;101726.00;;;;5074187;28;20226;-77
2021/05/02 10:16:24;;;;;;;1.67;0.70;;;;;16.80;101718.00;;;;5081755;28;20202;-77
2021/05/02 10:18:51;;;;;;;0.90;0.55;;;;;16.80;101716.00;;;;5074981;28;20199;-77
2021/05/02 10:21:18;;;;;;;1.73;0.60;;;;;16.90;101727.00;;;;5078886;28;20247;-78
2021/05/02 10:23:45;;;;;;;1.95;0.65;;;;;17.00;101720.00;;;;5078498;28;20198;-77
2021/05/02 10:26:13;;;;;;;1.13;0.75;;;;;17.00;101720.00;;;;5076560;28;20285;-77
2021/05/02 10:28:42;;;;;;;1.35;1.08;;;;;17.10;101726.00;;;;5074273;28;20198;-78
2021/05/02 10:31:10;;;;;;;1.77;0.90;;;;;17.10;101720.00;;;;5092995;28;20198;-77
2021/05/02 10:33:39;;;;;;;0.85;0.63;;;;;17.10;101715.00;;;;5073084;28;20226;-77
2021/05/02 10:36:07;;;;;;;1.80;0.90;;;;;17.10;101723.00;;;;5076328;28;20187;-78
2021/05/02 10:38:52;;;;;;;1.08;0.57;;;;;17.00;101731.00;;;;5084540;28;20198;-78
2021/05/02 10:41:28;;;;;;;1.10;0.68;;;;;17.00;101734.00;;;;5080089;28;20281;-77
2021/05/02 10:43:56;;;;;;;0.80;0.60;;;;;17.00;101731.00;;;;5080211;28;20221;-77
2021/05/02 10:46:44;;;;;;;0.82;0.47;;;;;16.70;101738.00;;;;5086416;28;20215;-79
2021/05/02 10:49:32;;;;;;;1.60;0.60;;;;;16.70;101731.00;;;;5066971;28;20206;-79
2021/05/02 10:52:27;;;;;;;2.05;1.00;;;;;16.50;101734.00;;;;5067984;28;20203;-78
2021/05/02 10:55:07;;;;;;;0.50;0.50;;;;;16.50;101733.00;;;;5074618;28;20700;-77
2021/05/02 10:57:35;;;;;;;3.60;0.65;;;;;16.50;101732.00;;;;5068619;28;20268;-75
2021/05/02 11:00:04;;;;;;;2.45;0.60;;;;;16.40;101735.00;;;;5068202;28;20634;-76
2021/05/02 11:02:40;;;;;;;0.60;0.40;;;;;16.30;101730.00;;;;5069617;28;20222;-76
2021/05/02 11:05:09;;;;;;;0.70;0.70;;;;;16.40;101729.00;;;;5069475;28;20201;-76
2021/05/02 11:07:39;;;;;;;1.95;1.08;;;;;16.50;101727.00;;;;5072879;28;20213;-76
2021/05/02 11:10:08;;;;;;;0.93;0.77;;;;;16.70;101719.00;;;;5077399;28;20215;-76
2021/05/02 11:12:35;;;;;;;1.08;0.57;;;;;16.90;101722.00;;;;5071615;28;20195;-77
2021/05/02 11:15:25;;;;;;;1.30;0.77;;;;;17.00;101716.00;;;;5067613;28;20229;-77
2021/05/02 11:17:53;;;;;;;0.85;0.70;;;;;17.10;101726.00;;;;5074362;28;20203;-77
2021/05/02 11:20:46;;;;;;;0.70;0.50;;;;;16.90;101746.00;;;;5067871;28;20325;-77
2021/05/02 11:23:13;;;;;;;1.20;0.70;;;;;17.00;101740.00;;;;5071805;28;20590;-78
2021/05/02 11:25:42;;;;;;;0.50;0.50;;;;;17.00;101741.00;;;;5078301;28;20669;-78
2021/05/02 11:28:10;;;;;;;0.80;0.40;;;;;17.00;101744.00;;;;5076365;28;20667;-77
2021/05/02 11:30:47;;;;;;;2.05;0.60;;;;;17.00;101744.00;;;;5072490;28;20328;-78
2021/05/02 11:33:23;;;;;;;1.13;0.70;;;;;17.00;101738.00;;;;5068522;28;20218;-78
2021/05/02 11:35:55;;;;;;;0.70;0.60;;;;;17.10;101740.00;;;;5070220;28;20302;-78
2021/05/02 11:38:39;;;;;;;0.73;0.60;;;;;17.00;101752.00;;;;5068070;28;20737;-77
2021/05/02 11:41:09;;;;;;;0.55;0.55;;;;;17.10;101751.00;;;;5068814;28;20559;-78
2021/05/02 11:43:37;;;;;;;0.93;0.60;;;;;17.10;101758.00;;;;5073425;28;20225;-78
2021/05/02 11:46:06;;;;;;;0.57;0.40;;;;;17.10;101754.00;;;;5069069;28;20679;-77
2021/05/02 11:48:35;;;;;;;1.92;0.77;;;;;17.10;101742.00;;;;5068449;28;20603;-78
2021/05/02 11:51:05;;;;;;;1.25;0.50;;;;;17.20;101746.00;;;;5069802;28;20240;-77
2021/05/02 11:53:36;;;;;;;1.38;0.57;;;;;17.20;101746.00;;;;5077880;28;20267;-79
2021/05/02 11:56:14;;;;;;;0.68;0.50;;;;;17.10;101739.00;;;;5076057;28;20885;-76
2021/05/02 11:58:41;;;;;;;0.60;0.60;;;;;17.20;101736.00;;;;5073744;28;20198;-77
2021/05/02 12:01:17;;;;;;;2.00;1.05;;;;;17.30;101739.00;;;;5081701;28;20210;-76
2021/05/02 12:03:45;;;;;;;0.50;0.40;;;;;17.40;101737.00;;;;5071836;28;20186;-77
2021/05/02 12:06:28;;;;;;;0.80;0.77;;;;;17.40;101750.00;;;;5068436;28;20218;-76
2021/05/02 12:08:57;;;;;;;0.43;0.38;;;;;17.60;101743.00;;;;5067949;28;20195;-77
2021/05/02 12:11:25;;;;;;;0.95;0.43;;;;;17.70;101748.00;;;;5068324;28;20265;-77
2021/05/02 12:13:54;;;;;;;0.60;0.43;;;;;17.80;101755.00;;;;5067856;28;20223;-76
2021/05/02 12:16:23;;;;;;;0.85;0.40;;;;;17.90;101753.00;;;;5069951;28;20289;-76
2021/05/02 12:18:55;;;;;;;0.80;0.40;;;;;17.90;101746.00;;;;5072430;28;21042;-77
2021/05/02 12:21:26;;;;;;;0.85;0.30;;;;;18.00;101754.00;;;;5076791;28;20552;-77
2021/05/02 12:23:55;;;;;;;0.45;0.38;;;;;18.00;101753.00;;;;5070418;28;20201;-76